Coastal Reliance — WADZ — position and weather

sailwx.info

Track history (hours):
 
Tides and Currents Weather Stations Pressure Air Temp Water Temp Dewpoint Dewpoint Depression Visibility Wind Speed Wind Dir Waves Ship Positions

Coastal Reliance

Owner: Intrepid Ship Management, Jacksonville, FL. More information available from US FCC via Universal Licensing System and Coast Guard Vessel Documentation Center.

Last reported at 2017-Sep-17 04:43 UTC. Time now 2017-Sep-24 17:49 UTC.
Position N 29°35' W 093°44'.

Type: Towing. MMSI: 369702000.

Date/timePositionNaut miles runAvg speedWind from/ knotsBaromVisibWave heightAir tempDewpointWater temp
2017-Sep-17 04:43N 29°35' W 093°44'0 0.0
2017-Sep-17 04:28N 29°35' W 093°44'0 0.0
2017-Sep-17 03:37N 29°35' W 093°44'0 0.0
2017-Sep-17 03:28N 29°35' W 093°44'0 0.0
2017-Sep-17 02:55N 29°35' W 093°44'0 0.0
2017-Sep-17 02:28N 29°35' W 093°44'0 0.0
2017-Sep-17 01:58N 29°35' W 093°44'24 1.9
2017-Sep-16 13:17N 29°59' W 093°50'2 7.8
2017-Sep-16 13:01N 29°59' W 093°48'4 7.4
2017-Sep-16 12:30N 30°02' W 093°44'2 0.1
2017-Sep-15 04:41N 30°04' W 093°43'0 0.0
2017-Sep-15 04:06N 30°04' W 093°43'0 0.0
2017-Sep-15 03:41N 30°04' W 093°43'0 0.0
2017-Sep-14 10:37N 30°04' W 093°43'0 0.0
2017-Sep-14 10:30N 30°04' W 093°43'0 0.0
2017-Sep-14 10:00N 30°04' W 093°43'0 0.0
2017-Sep-14 09:29N 30°04' W 093°43'0 0.0
2017-Sep-14 08:59N 30°04' W 093°43'0 0.0
2017-Sep-14 08:29N 30°04' W 093°43'0 0.0
2017-Sep-14 07:44N 30°04' W 093°43'0 0.0
2017-Sep-14 07:28N 30°04' W 093°43'0 0.0
2017-Sep-14 06:54N 30°04' W 093°43'0 0.0
2017-Sep-14 06:30N 30°04' W 093°43'0 0.0
2017-Sep-14 05:56N 30°04' W 093°43'0 0.0
2017-Sep-14 05:30N 30°04' W 093°43'  
Track history (hours):
 
Tides and Currents Weather Stations Pressure Air Temp Water Temp Dewpoint Dewpoint Depression Visibility Wind Speed Wind Dir Waves Ship Positions

Coastal Reliance

Owner: Intrepid Ship Management, Jacksonville, FL. More information available from US FCC via Universal Licensing System and Coast Guard Vessel Documentation Center.

Last reported at 2017-Sep-17 04:43 UTC. Time now 2017-Sep-24 17:49 UTC.
Position N 29°35' W 093°44'.

Type: Towing. MMSI: 369702000.

Date/timePositionNaut miles runAvg speedWind from/ knotsBaromVisibWave heightAir tempDewpointWater temp
2017-Sep-17 04:43N 29°35' W 093°44'0 0.0
2017-Sep-17 04:28N 29°35' W 093°44'0 0.0
2017-Sep-17 03:37N 29°35' W 093°44'0 0.0
2017-Sep-17 03:28N 29°35' W 093°44'0 0.0
2017-Sep-17 02:55N 29°35' W 093°44'0 0.0
2017-Sep-17 02:28N 29°35' W 093°44'0 0.0
2017-Sep-17 01:58N 29°35' W 093°44'24 1.9
2017-Sep-16 13:17N 29°59' W 093°50'2 7.8
2017-Sep-16 13:01N 29°59' W 093°48'4 7.4
2017-Sep-16 12:30N 30°02' W 093°44'2 0.1
2017-Sep-15 04:41N 30°04' W 093°43'0 0.0
2017-Sep-15 04:06N 30°04' W 093°43'0 0.0
2017-Sep-15 03:41N 30°04' W 093°43'0 0.0
2017-Sep-14 10:37N 30°04' W 093°43'0 0.0
2017-Sep-14 10:30N 30°04' W 093°43'0 0.0
2017-Sep-14 10:00N 30°04' W 093°43'0 0.0
2017-Sep-14 09:29N 30°04' W 093°43'0 0.0
2017-Sep-14 08:59N 30°04' W 093°43'0 0.0
2017-Sep-14 08:29N 30°04' W 093°43'0 0.0
2017-Sep-14 07:44N 30°04' W 093°43'0 0.0
2017-Sep-14 07:28N 30°04' W 093°43'0 0.0
2017-Sep-14 06:54N 30°04' W 093°43'0 0.0
2017-Sep-14 06:30N 30°04' W 093°43'0 0.0
2017-Sep-14 05:56N 30°04' W 093°43'0 0.0
2017-Sep-14 05:30N 30°04' W 093°43'  

Dump ship's entire track history